sensor_id;sensor_type;location;lat;lon;timestamp;P1;durP1;ratioP1;P2;durP2;ratioP2
44036;SDS011;62488;-37.670;-63.532;2023-03-11T00:00:13;9.90;;;1.95;;
44036;SDS011;62488;-37.670;-63.532;2023-03-11T00:02:43;6.78;;;1.67;;
44036;SDS011;62488;-37.670;-63.532;2023-03-11T00:05:15;6.20;;;1.73;;
44036;SDS011;62488;-37.670;-63.532;2023-03-11T00:07:44;8.95;;;2.30;;
44036;SDS011;62488;-37.670;-63.532;2023-03-11T00:10:15;5.80;;;1.40;;
44036;SDS011;62488;-37.670;-63.532;2023-03-11T00:12:43;8.68;;;1.85;;
44036;SDS011;62488;-37.670;-63.532;2023-03-11T00:15:11;8.57;;;1.77;;
44036;SDS011;62488;-37.670;-63.532;2023-03-11T00:17:39;2.45;;;1.20;;
44036;SDS011;62488;-37.670;-63.532;2023-03-11T00:20:06;7.70;;;1.48;;
44036;SDS011;62488;-37.670;-63.532;2023-03-11T00:22:39;7.25;;;1.88;;
44036;SDS011;62488;-37.670;-63.532;2023-03-11T00:25:06;3.17;;;1.40;;
44036;SDS011;62488;-37.670;-63.532;2023-03-11T00:27:35;4.68;;;1.50;;
44036;SDS011;62488;-37.670;-63.532;2023-03-11T00:30:02;5.57;;;1.40;;
44036;SDS011;62488;-37.670;-63.532;2023-03-11T00:32:29;4.00;;;1.60;;
44036;SDS011;62488;-37.670;-63.532;2023-03-11T00:34:56;8.07;;;1.58;;
44036;SDS011;62488;-37.670;-63.532;2023-03-11T00:37:23;5.65;;;1.45;;
44036;SDS011;62488;-37.670;-63.532;2023-03-11T00:39:50;6.57;;;1.77;;
44036;SDS011;62488;-37.670;-63.532;2023-03-11T00:54:09;7.82;;;1.90;;
44036;SDS011;62488;-37.670;-63.532;2023-03-11T00:56:35;7.57;;;2.08;;
44036;SDS011;62488;-37.670;-63.532;2023-03-11T00:59:03;6.85;;;2.20;;
44036;SDS011;62488;-37.670;-63.532;2023-03-11T01:01:30;2.72;;;2.00;;
44036;SDS011;62488;-37.670;-63.532;2023-03-11T01:03:57;4.75;;;2.70;;
44036;SDS011;62488;-37.670;-63.532;2023-03-11T01:06:24;8.93;;;3.10;;
44036;SDS011;62488;-37.670;-63.532;2023-03-11T01:08:51;6.82;;;2.75;;
44036;SDS011;62488;-37.670;-63.532;2023-03-11T01:11:18;6.45;;;2.88;;
44036;SDS011;62488;-37.670;-63.532;2023-03-11T01:13:45;5.47;;;2.40;;
44036;SDS011;62488;-37.670;-63.532;2023-03-11T01:16:12;5.22;;;2.22;;
44036;SDS011;62488;-37.670;-63.532;2023-03-11T01:18:39;9.23;;;4.63;;
44036;SDS011;62488;-37.670;-63.532;2023-03-11T01:21:06;6.65;;;3.30;;
44036;SDS011;62488;-37.670;-63.532;2023-03-11T01:23:33;5.97;;;3.00;;
44036;SDS011;62488;-37.670;-63.532;2023-03-11T01:26:00;3.03;;;2.72;;
44036;SDS011;62488;-37.670;-63.532;2023-03-11T01:28:27;4.90;;;2.10;;
44036;SDS011;62488;-37.670;-63.532;2023-03-11T01:30:55;2.60;;;2.40;;
44036;SDS011;62488;-37.670;-63.532;2023-03-11T01:33:22;3.80;;;2.67;;
44036;SDS011;62488;-37.670;-63.532;2023-03-11T01:35:49;2.38;;;2.15;;
44036;SDS011;62488;-37.670;-63.532;2023-03-11T01:38:16;4.47;;;2.47;;
44036;SDS011;62488;-37.670;-63.532;2023-03-11T01:40:47;5.32;;;2.72;;
44036;SDS011;62488;-37.670;-63.532;2023-03-11T01:47:23;2.22;;;2.00;;
44036;SDS011;62488;-37.670;-63.532;2023-03-11T01:49:11;2.67;;;2.38;;
44036;SDS011;62488;-37.670;-63.532;2023-03-11T01:54:21;2.17;;;1.98;;
44036;SDS011;62488;-37.670;-63.532;2023-03-11T01:56:52;1.95;;;1.75;;
44036;SDS011;62488;-37.670;-63.532;2023-03-11T01:59:35;2.95;;;2.08;;
44036;SDS011;62488;-37.670;-63.532;2023-03-11T02:02:19;3.13;;;1.77;;
44036;SDS011;62488;-37.670;-63.532;2023-03-11T02:04:59;1.88;;;1.77;;
44036;SDS011;62488;-37.670;-63.532;2023-03-11T02:07:27;6.13;;;2.13;;
44036;SDS011;62488;-37.670;-63.532;2023-03-11T02:09:54;2.95;;;1.90;;
44036;SDS011;62488;-37.670;-63.532;2023-03-11T02:12:21;7.38;;;2.17;;
44036;SDS011;62488;-37.670;-63.532;2023-03-11T02:14:49;3.40;;;1.88;;
44036;SDS011;62488;-37.670;-63.532;2023-03-11T02:17:19;3.22;;;2.35;;
44036;SDS011;62488;-37.670;-63.532;2023-03-11T02:22:31;3.35;;;2.10;;
44036;SDS011;62488;-37.670;-63.532;2023-03-11T02:27:42;5.05;;;2.70;;
44036;SDS011;62488;-37.670;-63.532;2023-03-11T02:30:13;4.35;;;2.50;;
44036;SDS011;62488;-37.670;-63.532;2023-03-11T02:32:42;4.70;;;2.42;;
44036;SDS011;62488;-37.670;-63.532;2023-03-11T02:35:12;3.50;;;2.83;;
44036;SDS011;62488;-37.670;-63.532;2023-03-11T02:37:47;3.85;;;3.10;;
44036;SDS011;62488;-37.670;-63.532;2023-03-11T02:43:01;2.70;;;2.50;;
44036;SDS011;62488;-37.670;-63.532;2023-03-11T02:45:31;3.10;;;2.30;;
44036;SDS011;62488;-37.670;-63.532;2023-03-11T02:47:59;3.78;;;2.25;;
44036;SDS011;62488;-37.670;-63.532;2023-03-11T02:50:27;3.83;;;3.00;;
44036;SDS011;62488;-37.670;-63.532;2023-03-11T02:52:55;2.65;;;2.45;;
44036;SDS011;62488;-37.670;-63.532;2023-03-11T02:57:51;3.13;;;2.65;;
44036;SDS011;62488;-37.670;-63.532;2023-03-11T03:00:19;3.05;;;2.80;;
44036;SDS011;62488;-37.670;-63.532;2023-03-11T03:02:47;3.25;;;2.90;;
44036;SDS011;62488;-37.670;-63.532;2023-03-11T03:05:18;3.97;;;2.95;;
44036;SDS011;62488;-37.670;-63.532;2023-03-11T03:07:49;4.20;;;2.10;;
44036;SDS011;62488;-37.670;-63.532;2023-03-11T03:10:17;3.08;;;2.50;;
44036;SDS011;62488;-37.670;-63.532;2023-03-11T03:12:45;2.42;;;2.22;;
44036;SDS011;62488;-37.670;-63.532;2023-03-11T03:15:12;4.15;;;2.33;;
44036;SDS011;62488;-37.670;-63.532;2023-03-11T03:17:40;4.30;;;2.50;;
44036;SDS011;62488;-37.670;-63.532;2023-03-11T03:20:07;5.45;;;2.63;;
44036;SDS011;62488;-37.670;-63.532;2023-03-11T03:22:37;4.50;;;2.65;;
44036;SDS011;62488;-37.670;-63.532;2023-03-11T03:25:04;2.55;;;2.35;;
44036;SDS011;62488;-37.670;-63.532;2023-03-11T03:27:34;4.22;;;2.60;;
44036;SDS011;62488;-37.670;-63.532;2023-03-11T03:30:02;5.00;;;2.40;;
44036;SDS011;62488;-37.670;-63.532;2023-03-11T03:32:30;2.65;;;2.40;;
44036;SDS011;62488;-37.670;-63.532;2023-03-11T03:34:59;8.57;;;3.35;;
44036;SDS011;62488;-37.670;-63.532;2023-03-11T03:37:27;2.83;;;2.08;;
44036;SDS011;62488;-37.670;-63.532;2023-03-11T03:39:57;2.42;;;2.22;;
44036;SDS011;62488;-37.670;-63.532;2023-03-11T03:42:24;5.03;;;2.55;;
44036;SDS011;62488;-37.670;-63.532;2023-03-11T03:44:51;6.47;;;2.28;;
44036;SDS011;62488;-37.670;-63.532;2023-03-11T03:47:19;2.38;;;2.17;;
44036;SDS011;62488;-37.670;-63.532;2023-03-11T03:49:46;1.95;;;1.83;;
44036;SDS011;62488;-37.670;-63.532;2023-03-11T03:52:13;2.53;;;2.17;;
44036;SDS011;62488;-37.670;-63.532;2023-03-11T03:54:40;2.83;;;2.63;;
44036;SDS011;62488;-37.670;-63.532;2023-03-11T03:57:07;3.47;;;2.28;;
44036;SDS011;62488;-37.670;-63.532;2023-03-11T03:59:34;4.22;;;2.75;;
44036;SDS011;62488;-37.670;-63.532;2023-03-11T04:02:01;2.30;;;2.10;;
44036;SDS011;62488;-37.670;-63.532;2023-03-11T04:04:31;2.17;;;1.98;;
44036;SDS011;62488;-37.670;-63.532;2023-03-11T04:06:58;2.45;;;2.22;;
44036;SDS011;62488;-37.670;-63.532;2023-03-11T04:09:25;4.43;;;2.00;;
44036;SDS011;62488;-37.670;-63.532;2023-03-11T04:11:52;4.30;;;2.38;;
44036;SDS011;62488;-37.670;-63.532;2023-03-11T04:14:19;2.20;;;1.88;;
44036;SDS011;62488;-37.670;-63.532;2023-03-11T04:16:46;1.90;;;1.80;;
44036;SDS011;62488;-37.670;-63.532;2023-03-11T04:19:13;2.58;;;1.92;;
44036;SDS011;62488;-37.670;-63.532;2023-03-11T04:21:40;5.70;;;1.73;;
44036;SDS011;62488;-37.670;-63.532;2023-03-11T04:24:07;4.80;;;1.63;;
44036;SDS011;62488;-37.670;-63.532;2023-03-11T04:26:34;1.80;;;1.70;;
44036;SDS011;62488;-37.670;-63.532;2023-03-11T04:29:01;2.33;;;2.08;;
44036;SDS011;62488;-37.670;-63.532;2023-03-11T04:31:28;5.88;;;2.03;;
44036;SDS011;62488;-37.670;-63.532;2023-03-11T04:33:55;4.30;;;1.50;;
44036;SDS011;62488;-37.670;-63.532;2023-03-11T04:36:22;5.70;;;2.20;;
44036;SDS011;62488;-37.670;-63.532;2023-03-11T04:38:49;4.43;;;2.17;;
44036;SDS011;62488;-37.670;-63.532;2023-03-11T04:41:16;2.90;;;1.63;;
44036;SDS011;62488;-37.670;-63.532;2023-03-11T04:43:43;4.15;;;1.80;;
44036;SDS011;62488;-37.670;-63.532;2023-03-11T04:46:10;5.10;;;1.52;;
44036;SDS011;62488;-37.670;-63.532;2023-03-11T04:48:37;2.88;;;1.65;;
44036;SDS011;62488;-37.670;-63.532;2023-03-11T04:51:04;5.60;;;2.47;;
44036;SDS011;62488;-37.670;-63.532;2023-03-11T04:53:32;2.50;;;2.30;;
44036;SDS011;62488;-37.670;-63.532;2023-03-11T04:55:59;3.70;;;1.58;;
44036;SDS011;62488;-37.670;-63.532;2023-03-11T04:58:26;3.85;;;1.63;;
44036;SDS011;62488;-37.670;-63.532;2023-03-11T05:00:53;1.80;;;1.70;;
44036;SDS011;62488;-37.670;-63.532;2023-03-11T05:03:20;1.75;;;1.60;;
44036;SDS011;62488;-37.670;-63.532;2023-03-11T05:05:47;4.07;;;2.05;;
44036;SDS011;62488;-37.670;-63.532;2023-03-11T05:08:14;5.32;;;1.70;;
44036;SDS011;62488;-37.670;-63.532;2023-03-11T05:10:41;2.38;;;1.75;;
44036;SDS011;62488;-37.670;-63.532;2023-03-11T05:13:09;5.50;;;1.60;;
44036;SDS011;62488;-37.670;-63.532;2023-03-11T05:15:36;4.00;;;1.48;;
44036;SDS011;62488;-37.670;-63.532;2023-03-11T05:18:03;2.08;;;1.75;;
44036;SDS011;62488;-37.670;-63.532;2023-03-11T05:20:31;3.45;;;1.50;;
44036;SDS011;62488;-37.670;-63.532;2023-03-11T05:22:58;1.50;;;1.33;;
44036;SDS011;62488;-37.670;-63.532;2023-03-11T05:25:25;5.53;;;1.90;;
44036;SDS011;62488;-37.670;-63.532;2023-03-11T05:27:52;2.13;;;1.92;;
44036;SDS011;62488;-37.670;-63.532;2023-03-11T05:30:19;1.70;;;1.60;;
44036;SDS011;62488;-37.670;-63.532;2023-03-11T05:32:46;2.20;;;1.80;;
44036;SDS011;62488;-37.670;-63.532;2023-03-11T05:35:13;3.47;;;1.83;;
44036;SDS011;62488;-37.670;-63.532;2023-03-11T05:37:40;3.08;;;1.85;;
44036;SDS011;62488;-37.670;-63.532;2023-03-11T05:40:09;3.15;;;1.90;;
44036;SDS011;62488;-37.670;-63.532;2023-03-11T05:42:37;2.08;;;1.80;;
44036;SDS011;62488;-37.670;-63.532;2023-03-11T05:45:06;2.30;;;1.60;;
44036;SDS011;62488;-37.670;-63.532;2023-03-11T05:47:34;3.25;;;2.05;;
44036;SDS011;62488;-37.670;-63.532;2023-03-11T05:50:01;3.80;;;2.03;;
44036;SDS011;62488;-37.670;-63.532;2023-03-11T05:52:29;2.25;;;2.05;;
44036;SDS011;62488;-37.670;-63.532;2023-03-11T05:54:57;2.38;;;2.17;;
44036;SDS011;62488;-37.670;-63.532;2023-03-11T05:57:24;4.35;;;2.35;;
44036;SDS011;62488;-37.670;-63.532;2023-03-11T05:59:51;2.60;;;2.40;;
44036;SDS011;62488;-37.670;-63.532;2023-03-11T06:02:18;2.38;;;2.17;;
44036;SDS011;62488;-37.670;-63.532;2023-03-11T06:04:48;2.58;;;2.38;;
44036;SDS011;62488;-37.670;-63.532;2023-03-11T06:07:15;2.63;;;2.20;;
44036;SDS011;62488;-37.670;-63.532;2023-03-11T06:09:42;4.40;;;2.35;;
44036;SDS011;62488;-37.670;-63.532;2023-03-11T06:12:09;8.68;;;2.33;;
44036;SDS011;62488;-37.670;-63.532;2023-03-11T06:14:36;3.08;;;2.80;;
44036;SDS011;62488;-37.670;-63.532;2023-03-11T06:17:03;2.45;;;2.30;;
44036;SDS011;62488;-37.670;-63.532;2023-03-11T06:19:30;3.47;;;2.25;;
44036;SDS011;62488;-37.670;-63.532;2023-03-11T06:21:57;5.35;;;1.92;;
44036;SDS011;62488;-37.670;-63.532;2023-03-11T06:24:24;2.83;;;2.63;;
44036;SDS011;62488;-37.670;-63.532;2023-03-11T06:26:51;2.00;;;1.90;;
44036;SDS011;62488;-37.670;-63.532;2023-03-11T06:29:18;2.38;;;2.17;;
44036;SDS011;62488;-37.670;-63.532;2023-03-11T06:31:48;2.92;;;1.90;;
44036;SDS011;62488;-37.670;-63.532;2023-03-11T06:34:15;3.40;;;2.30;;
44036;SDS011;62488;-37.670;-63.532;2023-03-11T06:36:42;3.70;;;2.00;;
44036;SDS011;62488;-37.670;-63.532;2023-03-11T06:39:13;1.90;;;1.80;;
44036;SDS011;62488;-37.670;-63.532;2023-03-11T06:41:40;2.53;;;1.65;;
44036;SDS011;62488;-37.670;-63.532;2023-03-11T06:44:08;1.95;;;1.60;;
44036;SDS011;62488;-37.670;-63.532;2023-03-11T06:46:35;1.73;;;1.60;;
44036;SDS011;62488;-37.670;-63.532;2023-03-11T06:49:02;2.10;;;1.90;;
44036;SDS011;62488;-37.670;-63.532;2023-03-11T06:51:29;1.77;;;1.67;;
44036;SDS011;62488;-37.670;-63.532;2023-03-11T06:53:56;1.55;;;1.45;;
44036;SDS011;62488;-37.670;-63.532;2023-03-11T06:56:23;2.80;;;1.90;;
44036;SDS011;62488;-37.670;-63.532;2023-03-11T06:58:53;2.92;;;1.88;;
44036;SDS011;62488;-37.670;-63.532;2023-03-11T07:01:21;2.78;;;2.08;;
44036;SDS011;62488;-37.670;-63.532;2023-03-11T07:06:17;3.50;;;1.75;;
44036;SDS011;62488;-37.670;-63.532;2023-03-11T07:08:47;3.00;;;1.85;;
44036;SDS011;62488;-37.670;-63.532;2023-03-11T07:13:47;1.95;;;1.80;;
44036;SDS011;62488;-37.670;-63.532;2023-03-11T07:16:16;2.83;;;1.60;;
44036;SDS011;62488;-37.670;-63.532;2023-03-11T07:18:45;2.08;;;1.85;;
44036;SDS011;62488;-37.670;-63.532;2023-03-11T07:21:14;1.95;;;1.70;;
44036;SDS011;62488;-37.670;-63.532;2023-03-11T07:26:10;2.38;;;1.90;;
44036;SDS011;62488;-37.670;-63.532;2023-03-11T07:28:39;4.38;;;2.10;;
44036;SDS011;62488;-37.670;-63.532;2023-03-11T07:31:07;2.67;;;1.73;;
44036;SDS011;62488;-37.670;-63.532;2023-03-11T07:33:35;6.47;;;1.90;;
44036;SDS011;62488;-37.670;-63.532;2023-03-11T07:36:13;1.65;;;1.55;;
44036;SDS011;62488;-37.670;-63.532;2023-03-11T07:38:42;2.67;;;1.77;;
44036;SDS011;62488;-37.670;-63.532;2023-03-11T07:41:10;5.95;;;2.20;;
44036;SDS011;62488;-37.670;-63.532;2023-03-11T07:43:38;3.40;;;1.97;;
44036;SDS011;62488;-37.670;-63.532;2023-03-11T07:46:08;2.13;;;1.88;;
44036;SDS011;62488;-37.670;-63.532;2023-03-11T07:48:41;3.30;;;1.90;;
44036;SDS011;62488;-37.670;-63.532;2023-03-11T07:51:17;3.38;;;1.95;;
44036;SDS011;62488;-37.670;-63.532;2023-03-11T07:53:45;2.17;;;1.63;;
44036;SDS011;62488;-37.670;-63.532;2023-03-11T07:56:14;1.90;;;1.70;;
44036;SDS011;62488;-37.670;-63.532;2023-03-11T07:58:41;2.55;;;2.25;;
44036;SDS011;62488;-37.670;-63.532;2023-03-11T08:01:13;3.10;;;2.05;;
44036;SDS011;62488;-37.670;-63.532;2023-03-11T08:03:43;4.45;;;2.15;;
44036;SDS011;62488;-37.670;-63.532;2023-03-11T08:06:11;2.20;;;1.87;;
44036;SDS011;62488;-37.670;-63.532;2023-03-11T08:08:39;2.53;;;2.00;;
44036;SDS011;62488;-37.670;-63.532;2023-03-11T08:11:06;2.13;;;1.70;;
44036;SDS011;62488;-37.670;-63.532;2023-03-11T08:13:33;2.00;;;1.90;;
44036;SDS011;62488;-37.670;-63.532;2023-03-11T08:16:04;2.35;;;2.20;;
44036;SDS011;62488;-37.670;-63.532;2023-03-11T08:18:33;2.88;;;2.13;;
44036;SDS011;62488;-37.670;-63.532;2023-03-11T08:21:03;3.47;;;2.03;;
44036;SDS011;62488;-37.670;-63.532;2023-03-11T08:23:33;2.60;;;1.90;;
44036;SDS011;62488;-37.670;-63.532;2023-03-11T08:26:04;3.00;;;2.10;;
44036;SDS011;62488;-37.670;-63.532;2023-03-11T08:28:36;5.93;;;2.15;;
44036;SDS011;62488;-37.670;-63.532;2023-03-11T08:31:10;2.90;;;2.25;;
44036;SDS011;62488;-37.670;-63.532;2023-03-11T08:33:39;2.50;;;2.10;;
44036;SDS011;62488;-37.670;-63.532;2023-03-11T08:36:07;2.65;;;2.30;;
44036;SDS011;62488;-37.670;-63.532;2023-03-11T08:38:34;4.70;;;2.33;;
44036;SDS011;62488;-37.670;-63.532;2023-03-11T08:41:01;2.78;;;2.30;;
44036;SDS011;62488;-37.670;-63.532;2023-03-11T08:43:28;3.45;;;2.10;;
44036;SDS011;62488;-37.670;-63.532;2023-03-11T08:45:55;2.40;;;2.20;;
44036;SDS011;62488;-37.670;-63.532;2023-03-11T08:48:24;2.50;;;2.30;;
44036;SDS011;62488;-37.670;-63.532;2023-03-11T08:50:51;2.60;;;2.40;;
44036;SDS011;62488;-37.670;-63.532;2023-03-11T08:53:18;2.60;;;2.40;;
44036;SDS011;62488;-37.670;-63.532;2023-03-11T08:55:46;5.15;;;2.30;;
44036;SDS011;62488;-37.670;-63.532;2023-03-11T08:58:14;3.40;;;2.10;;
44036;SDS011;62488;-37.670;-63.532;2023-03-11T09:11:42;4.47;;;2.75;;
44036;SDS011;62488;-37.670;-63.532;2023-03-11T09:14:10;3.00;;;2.50;;
44036;SDS011;62488;-37.670;-63.532;2023-03-11T09:16:37;76.22;;;9.45;;
44036;SDS011;62488;-37.670;-63.532;2023-03-11T09:19:05;4.43;;;3.47;;
44036;SDS011;62488;-37.670;-63.532;2023-03-11T09:21:32;5.65;;;3.28;;
44036;SDS011;62488;-37.670;-63.532;2023-03-11T09:24:00;6.68;;;2.90;;
44036;SDS011;62488;-37.670;-63.532;2023-03-11T09:26:29;3.60;;;2.78;;
44036;SDS011;62488;-37.670;-63.532;2023-03-11T09:28:56;6.95;;;3.38;;
44036;SDS011;62488;-37.670;-63.532;2023-03-11T09:31:23;3.55;;;3.03;;
44036;SDS011;62488;-37.670;-63.532;2023-03-11T09:33:50;31.50;;;7.47;;
44036;SDS011;62488;-37.670;-63.532;2023-03-11T09:36:20;3.75;;;2.90;;
44036;SDS011;62488;-37.670;-63.532;2023-03-11T09:38:47;3.63;;;3.33;;
44036;SDS011;62488;-37.670;-63.532;2023-03-11T09:57:53;4.35;;;3.30;;
44036;SDS011;62488;-37.670;-63.532;2023-03-11T10:00:23;11.10;;;4.43;;
44036;SDS011;62488;-37.670;-63.532;2023-03-11T10:02:50;5.75;;;3.42;;
44036;SDS011;62488;-37.670;-63.532;2023-03-11T10:05:22;4.18;;;3.80;;
44036;SDS011;62488;-37.670;-63.532;2023-03-11T10:08:02;5.53;;;3.90;;
44036;SDS011;62488;-37.670;-63.532;2023-03-11T10:10:54;6.03;;;3.75;;
44036;SDS011;62488;-37.670;-63.532;2023-03-11T10:13:56;6.85;;;3.30;;
44036;SDS011;62488;-37.670;-63.532;2023-03-11T10:16:27;5.95;;;3.63;;
44036;SDS011;62488;-37.670;-63.532;2023-03-11T10:21:59;4.10;;;3.60;;
44036;SDS011;62488;-37.670;-63.532;2023-03-11T10:27:22;7.90;;;4.30;;
44036;SDS011;62488;-37.670;-63.532;2023-03-11T10:30:05;4.35;;;3.95;;
44036;SDS011;62488;-37.670;-63.532;2023-03-11T10:32:45;4.20;;;3.80;;
44036;SDS011;62488;-37.670;-63.532;2023-03-11T10:35:32;6.72;;;3.92;;
44036;SDS011;62488;-37.670;-63.532;2023-03-11T10:38:13;8.43;;;4.80;;
44036;SDS011;62488;-37.670;-63.532;2023-03-11T10:40:42;6.60;;;4.57;;
44036;SDS011;62488;-37.670;-63.532;2023-03-11T10:45:56;7.32;;;4.75;;
44036;SDS011;62488;-37.670;-63.532;2023-03-11T10:48:24;6.65;;;4.63;;
44036;SDS011;62488;-37.670;-63.532;2023-03-11T10:54:19;7.27;;;4.47;;
44036;SDS011;62488;-37.670;-63.532;2023-03-11T10:56:37;6.85;;;4.88;;
44036;SDS011;62488;-37.670;-63.532;2023-03-11T10:59:51;10.48;;;4.88;;
44036;SDS011;62488;-37.670;-63.532;2023-03-11T11:01:56;10.77;;;4.63;;
44036;SDS011;62488;-37.670;-63.532;2023-03-11T11:04:38;6.20;;;4.05;;
44036;SDS011;62488;-37.670;-63.532;2023-03-11T11:07:48;9.18;;;4.78;;
44036;SDS011;62488;-37.670;-63.532;2023-03-11T11:12:53;5.30;;;4.40;;
44036;SDS011;62488;-37.670;-63.532;2023-03-11T11:15:29;7.90;;;4.60;;
44036;SDS011;62488;-37.670;-63.532;2023-03-11T11:17:58;6.35;;;4.95;;
44036;SDS011;62488;-37.670;-63.532;2023-03-11T11:20:27;8.50;;;4.18;;
44036;SDS011;62488;-37.670;-63.532;2023-03-11T11:22:59;6.63;;;4.35;;
44036;SDS011;62488;-37.670;-63.532;2023-03-11T11:25:35;13.38;;;4.63;;
44036;SDS011;62488;-37.670;-63.532;2023-03-11T11:30:54;11.90;;;4.80;;
44036;SDS011;62488;-37.670;-63.532;2023-03-11T11:33:30;8.48;;;4.47;;
44036;SDS011;62488;-37.670;-63.532;2023-03-11T11:36:08;8.73;;;5.32;;
44036;SDS011;62488;-37.670;-63.532;2023-03-11T11:38:39;7.72;;;4.20;;
44036;SDS011;62488;-37.670;-63.532;2023-03-11T11:41:15;12.77;;;4.57;;
44036;SDS011;62488;-37.670;-63.532;2023-03-11T11:46:37;5.00;;;3.50;;
44036;SDS011;62488;-37.670;-63.532;2023-03-11T11:49:37;10.52;;;5.32;;
44036;SDS011;62488;-37.670;-63.532;2023-03-11T11:52:30;9.02;;;4.68;;
44036;SDS011;62488;-37.670;-63.532;2023-03-11T11:55:25;11.20;;;4.40;;
44036;SDS011;62488;-37.670;-63.532;2023-03-11T11:57:53;10.88;;;4.43;;
44036;SDS011;62488;-37.670;-63.532;2023-03-11T12:00:22;11.50;;;4.43;;
44036;SDS011;62488;-37.670;-63.532;2023-03-11T12:03:27;10.40;;;4.25;;
44036;SDS011;62488;-37.670;-63.532;2023-03-11T12:06:11;9.38;;;4.68;;
44036;SDS011;62488;-37.670;-63.532;2023-03-11T12:11:28;9.90;;;5.20;;
44036;SDS011;62488;-37.670;-63.532;2023-03-11T12:14:25;8.93;;;4.50;;
44036;SDS011;62488;-37.670;-63.532;2023-03-11T12:17:03;9.85;;;4.40;;
44036;SDS011;62488;-37.670;-63.532;2023-03-11T12:19:43;6.70;;;3.83;;
44036;SDS011;62488;-37.670;-63.532;2023-03-11T12:28:14;11.50;;;4.55;;
44036;SDS011;62488;-37.670;-63.532;2023-03-11T12:30:58;8.40;;;4.50;;
44036;SDS011;62488;-37.670;-63.532;2023-03-11T12:36:02;8.68;;;4.53;;
44036;SDS011;62488;-37.670;-63.532;2023-03-11T12:38:41;10.57;;;4.57;;
44036;SDS011;62488;-37.670;-63.532;2023-03-11T12:53:55;9.05;;;4.80;;
44036;SDS011;62488;-37.670;-63.532;2023-03-11T13:10:44;10.95;;;4.95;;
44036;SDS011;62488;-37.670;-63.532;2023-03-11T13:18:40;7.20;;;4.32;;
44036;SDS011;62488;-37.670;-63.532;2023-03-11T13:27:00;10.52;;;4.30;;
44036;SDS011;62488;-37.670;-63.532;2023-03-11T13:42:18;10.23;;;4.75;;
44036;SDS011;62488;-37.670;-63.532;2023-03-11T13:44:52;15.25;;;5.40;;
44036;SDS011;62488;-37.670;-63.532;2023-03-11T13:47:19;6.88;;;3.92;;
44036;SDS011;62488;-37.670;-63.532;2023-03-11T13:52:24;8.40;;;4.65;;
44036;SDS011;62488;-37.670;-63.532;2023-03-11T13:55:00;9.98;;;4.30;;
44036;SDS011;62488;-37.670;-63.532;2023-03-11T13:57:50;11.65;;;4.63;;
44036;SDS011;62488;-37.670;-63.532;2023-03-11T14:00:20;9.50;;;5.28;;
44036;SDS011;62488;-37.670;-63.532;2023-03-11T14:03:02;7.68;;;4.65;;
44036;SDS011;62488;-37.670;-63.532;2023-03-11T14:05:36;10.88;;;4.93;;
44036;SDS011;62488;-37.670;-63.532;2023-03-11T14:19:33;10.98;;;4.18;;
44036;SDS011;62488;-37.670;-63.532;2023-03-11T14:21:53;9.45;;;4.80;;
44036;SDS011;62488;-37.670;-63.532;2023-03-11T14:24:30;10.93;;;4.40;;
44036;SDS011;62488;-37.670;-63.532;2023-03-11T14:26:57;10.57;;;4.78;;
44036;SDS011;62488;-37.670;-63.532;2023-03-11T14:35:15;5.00;;;4.20;;
44036;SDS011;62488;-37.670;-63.532;2023-03-11T14:37:45;11.50;;;4.20;;
44036;SDS011;62488;-37.670;-63.532;2023-03-11T14:40:28;10.30;;;4.70;;
44036;SDS011;62488;-37.670;-63.532;2023-03-11T14:43:04;19.48;;;4.22;;
44036;SDS011;62488;-37.670;-63.532;2023-03-11T14:50:34;9.40;;;4.10;;
44036;SDS011;62488;-37.670;-63.532;2023-03-11T14:55:36;10.75;;;4.22;;
44036;SDS011;62488;-37.670;-63.532;2023-03-11T14:58:15;8.07;;;3.70;;
44036;SDS011;62488;-37.670;-63.532;2023-03-11T15:03:52;10.48;;;3.88;;
44036;SDS011;62488;-37.670;-63.532;2023-03-11T15:06:48;11.23;;;4.50;;
44036;SDS011;62488;-37.670;-63.532;2023-03-11T15:09:19;10.95;;;4.20;;
44036;SDS011;62488;-37.670;-63.532;2023-03-11T15:11:50;20.50;;;4.63;;
44036;SDS011;62488;-37.670;-63.532;2023-03-11T15:14:33;5.72;;;3.28;;
44036;SDS011;62488;-37.670;-63.532;2023-03-11T15:19:51;10.55;;;3.97;;
44036;SDS011;62488;-37.670;-63.532;2023-03-11T15:22:21;9.77;;;3.80;;
44036;SDS011;62488;-37.670;-63.532;2023-03-11T15:24:58;5.97;;;3.78;;
44036;SDS011;62488;-37.670;-63.532;2023-03-11T15:27:33;13.07;;;4.22;;
44036;SDS011;62488;-37.670;-63.532;2023-03-11T15:30:03;8.55;;;3.55;;
44036;SDS011;62488;-37.670;-63.532;2023-03-11T15:32:43;12.18;;;3.88;;
44036;SDS011;62488;-37.670;-63.532;2023-03-11T15:35:16;13.40;;;4.27;;
44036;SDS011;62488;-37.670;-63.532;2023-03-11T15:37:46;14.63;;;4.22;;
44036;SDS011;62488;-37.670;-63.532;2023-03-11T15:42:44;12.07;;;4.45;;
44036;SDS011;62488;-37.670;-63.532;2023-03-11T15:45:18;15.83;;;4.70;;
44036;SDS011;62488;-37.670;-63.532;2023-03-11T15:47:46;7.85;;;3.63;;
44036;SDS011;62488;-37.670;-63.532;2023-03-11T15:50:19;10.13;;;3.55;;
44036;SDS011;62488;-37.670;-63.532;2023-03-11T15:52:56;5.03;;;3.55;;
44036;SDS011;62488;-37.670;-63.532;2023-03-11T15:55:24;10.25;;;3.70;;
44036;SDS011;62488;-37.670;-63.532;2023-03-11T15:57:55;9.37;;;3.27;;
44036;SDS011;62488;-37.670;-63.532;2023-03-11T16:00:34;8.40;;;4.10;;
44036;SDS011;62488;-37.670;-63.532;2023-03-11T16:03:02;9.30;;;3.53;;
44036;SDS011;62488;-37.670;-63.532;2023-03-11T16:05:29;10.05;;;4.03;;
44036;SDS011;62488;-37.670;-63.532;2023-03-11T16:07:57;7.88;;;4.80;;
44036;SDS011;62488;-37.670;-63.532;2023-03-11T16:10:24;6.28;;;3.15;;
44036;SDS011;62488;-37.670;-63.532;2023-03-11T16:12:53;6.82;;;3.47;;
44036;SDS011;62488;-37.670;-63.532;2023-03-11T16:15:27;14.52;;;3.33;;
44036;SDS011;62488;-37.670;-63.532;2023-03-11T16:17:58;8.95;;;3.38;;
44036;SDS011;62488;-37.670;-63.532;2023-03-11T16:20:28;8.32;;;3.63;;
44036;SDS011;62488;-37.670;-63.532;2023-03-11T16:23:03;10.10;;;3.60;;
44036;SDS011;62488;-37.670;-63.532;2023-03-11T16:25:37;15.45;;;4.30;;
44036;SDS011;62488;-37.670;-63.532;2023-03-11T16:28:06;7.22;;;3.90;;
44036;SDS011;62488;-37.670;-63.532;2023-03-11T16:30:36;12.25;;;3.40;;
44036;SDS011;62488;-37.670;-63.532;2023-03-11T16:33:03;6.18;;;3.33;;
44036;SDS011;62488;-37.670;-63.532;2023-03-11T16:35:30;7.45;;;3.63;;
44036;SDS011;62488;-37.670;-63.532;2023-03-11T16:37:57;14.27;;;4.13;;
44036;SDS011;62488;-37.670;-63.532;2023-03-11T16:40:25;3.72;;;3.20;;
44036;SDS011;62488;-37.670;-63.532;2023-03-11T16:42:57;9.98;;;3.75;;
44036;SDS011;62488;-37.670;-63.532;2023-03-11T16:45:29;11.88;;;3.92;;
44036;SDS011;62488;-37.670;-63.532;2023-03-11T16:47:57;4.93;;;3.55;;
44036;SDS011;62488;-37.670;-63.532;2023-03-11T16:50:24;5.95;;;2.97;;
44036;SDS011;62488;-37.670;-63.532;2023-03-11T16:52:52;15.13;;;3.45;;
44036;SDS011;62488;-37.670;-63.532;2023-03-11T16:55:21;7.75;;;3.70;;
44036;SDS011;62488;-37.670;-63.532;2023-03-11T16:57:49;5.55;;;2.85;;
44036;SDS011;62488;-37.670;-63.532;2023-03-11T17:00:17;7.38;;;3.25;;
44036;SDS011;62488;-37.670;-63.532;2023-03-11T17:02:45;12.80;;;3.58;;
44036;SDS011;62488;-37.670;-63.532;2023-03-11T17:05:12;11.05;;;3.78;;
44036;SDS011;62488;-37.670;-63.532;2023-03-11T17:07:39;11.45;;;3.20;;
44036;SDS011;62488;-37.670;-63.532;2023-03-11T17:10:07;7.25;;;3.20;;
44036;SDS011;62488;-37.670;-63.532;2023-03-11T17:12:35;9.05;;;3.22;;
44036;SDS011;62488;-37.670;-63.532;2023-03-11T17:15:04;8.30;;;3.10;;
44036;SDS011;62488;-37.670;-63.532;2023-03-11T17:17:32;5.95;;;2.67;;
44036;SDS011;62488;-37.670;-63.532;2023-03-11T17:20:00;10.20;;;3.28;;
44036;SDS011;62488;-37.670;-63.532;2023-03-11T17:22:27;5.32;;;3.08;;
44036;SDS011;62488;-37.670;-63.532;2023-03-11T17:24:54;45.78;;;5.00;;